sensor_id;sensor_type;location;lat;lon;timestamp;P1;durP1;ratioP1;P2;durP2;ratioP2
50683;SDS011;36654;45.042;38.994;2023-04-25T00:02:10;4.32;;;2.40;;
50683;SDS011;36654;45.042;38.994;2023-04-25T00:04:35;2.58;;;2.38;;
50683;SDS011;36654;45.042;38.994;2023-04-25T00:07:03;2.72;;;2.53;;
50683;SDS011;36654;45.042;38.994;2023-04-25T00:09:29;5.30;;;2.78;;
50683;SDS011;36654;45.042;38.994;2023-04-25T00:11:55;3.03;;;2.55;;
50683;SDS011;36654;45.042;38.994;2023-04-25T00:14:21;2.63;;;2.42;;
50683;SDS011;36654;45.042;38.994;2023-04-25T00:16:48;2.47;;;2.28;;
50683;SDS011;36654;45.042;38.994;2023-04-25T00:19:13;2.67;;;2.47;;
50683;SDS011;36654;45.042;38.994;2023-04-25T00:21:39;3.65;;;2.80;;
50683;SDS011;36654;45.042;38.994;2023-04-25T00:24:07;3.00;;;2.70;;
50683;SDS011;36654;45.042;38.994;2023-04-25T00:26:34;3.60;;;2.90;;
50683;SDS011;36654;45.042;38.994;2023-04-25T00:29:01;4.57;;;3.03;;
50683;SDS011;36654;45.042;38.994;2023-04-25T00:31:27;5.47;;;3.10;;
50683;SDS011;36654;45.042;38.994;2023-04-25T00:33:54;7.43;;;3.75;;
50683;SDS011;36654;45.042;38.994;2023-04-25T00:36:20;3.63;;;3.25;;
50683;SDS011;36654;45.042;38.994;2023-04-25T00:38:45;5.22;;;3.35;;
50683;SDS011;36654;45.042;38.994;2023-04-25T00:41:11;3.70;;;3.40;;
50683;SDS011;36654;45.042;38.994;2023-04-25T00:43:37;4.45;;;3.53;;
50683;SDS011;36654;45.042;38.994;2023-04-25T00:46:03;7.57;;;3.45;;
50683;SDS011;36654;45.042;38.994;2023-04-25T00:48:29;5.28;;;3.10;;
50683;SDS011;36654;45.042;38.994;2023-04-25T00:50:55;5.45;;;3.53;;
50683;SDS011;36654;45.042;38.994;2023-04-25T00:55:50;4.95;;;3.72;;
50683;SDS011;36654;45.042;38.994;2023-04-25T00:58:18;4.22;;;3.42;;
50683;SDS011;36654;45.042;38.994;2023-04-25T01:00:46;5.57;;;3.47;;
50683;SDS011;36654;45.042;38.994;2023-04-25T01:03:16;6.22;;;3.45;;
50683;SDS011;36654;45.042;38.994;2023-04-25T01:05:44;4.50;;;3.38;;
50683;SDS011;36654;45.042;38.994;2023-04-25T01:08:10;5.07;;;3.28;;
50683;SDS011;36654;45.042;38.994;2023-04-25T01:10:36;6.20;;;3.65;;
50683;SDS011;36654;45.042;38.994;2023-04-25T01:13:03;12.15;;;3.58;;
50683;SDS011;36654;45.042;38.994;2023-04-25T01:15:29;4.07;;;3.20;;
50683;SDS011;36654;45.042;38.994;2023-04-25T01:17:55;5.25;;;2.92;;
50683;SDS011;36654;45.042;38.994;2023-04-25T01:20:23;3.83;;;3.10;;
50683;SDS011;36654;45.042;38.994;2023-04-25T01:22:53;5.10;;;3.38;;
50683;SDS011;36654;45.042;38.994;2023-04-25T01:25:19;4.07;;;2.90;;
50683;SDS011;36654;45.042;38.994;2023-04-25T01:27:45;5.10;;;2.95;;
50683;SDS011;36654;45.042;38.994;2023-04-25T01:30:11;5.32;;;3.05;;
50683;SDS011;36654;45.042;38.994;2023-04-25T01:32:37;5.90;;;3.35;;
50683;SDS011;36654;45.042;38.994;2023-04-25T01:35:06;3.00;;;2.70;;
50683;SDS011;36654;45.042;38.994;2023-04-25T01:37:39;4.22;;;3.22;;
50683;SDS011;36654;45.042;38.994;2023-04-25T01:40:06;4.75;;;3.20;;
50683;SDS011;36654;45.042;38.994;2023-04-25T01:42:34;5.85;;;3.58;;
50683;SDS011;36654;45.042;38.994;2023-04-25T01:45:01;3.25;;;2.60;;
50683;SDS011;36654;45.042;38.994;2023-04-25T01:47:27;3.53;;;3.22;;
50683;SDS011;36654;45.042;38.994;2023-04-25T01:49:53;5.65;;;3.15;;
50683;SDS011;36654;45.042;38.994;2023-04-25T01:52:19;5.40;;;3.10;;
50683;SDS011;36654;45.042;38.994;2023-04-25T01:54:44;4.63;;;3.20;;
50683;SDS011;36654;45.042;38.994;2023-04-25T01:57:11;3.05;;;2.75;;
50683;SDS011;36654;45.042;38.994;2023-04-25T01:59:36;5.10;;;3.03;;
50683;SDS011;36654;45.042;38.994;2023-04-25T02:02:03;5.15;;;3.17;;
50683;SDS011;36654;45.042;38.994;2023-04-25T02:04:32;2.90;;;2.70;;
50683;SDS011;36654;45.042;38.994;2023-04-25T02:06:58;3.42;;;2.85;;
50683;SDS011;36654;45.042;38.994;2023-04-25T02:09:24;3.00;;;2.78;;
50683;SDS011;36654;45.042;38.994;2023-04-25T02:11:49;4.20;;;2.88;;
50683;SDS011;36654;45.042;38.994;2023-04-25T02:14:15;3.85;;;2.60;;
50683;SDS011;36654;45.042;38.994;2023-04-25T02:16:41;3.22;;;2.92;;
50683;SDS011;36654;45.042;38.994;2023-04-25T02:19:08;3.28;;;2.97;;
50683;SDS011;36654;45.042;38.994;2023-04-25T02:21:35;3.33;;;3.03;;
50683;SDS011;36654;45.042;38.994;2023-04-25T02:24:01;3.22;;;2.90;;
50683;SDS011;36654;45.042;38.994;2023-04-25T02:26:27;5.53;;;3.10;;
50683;SDS011;36654;45.042;38.994;2023-04-25T02:28:53;3.65;;;2.70;;
50683;SDS011;36654;45.042;38.994;2023-04-25T02:31:19;6.22;;;3.25;;
50683;SDS011;36654;45.042;38.994;2023-04-25T02:33:44;3.25;;;2.63;;
50683;SDS011;36654;45.042;38.994;2023-04-25T02:36:10;2.90;;;2.58;;
50683;SDS011;36654;45.042;38.994;2023-04-25T02:38:36;2.60;;;2.40;;
50683;SDS011;36654;45.042;38.994;2023-04-25T02:41:02;2.65;;;2.45;;
50683;SDS011;36654;45.042;38.994;2023-04-25T02:43:27;3.28;;;2.28;;
50683;SDS011;36654;45.042;38.994;2023-04-25T02:45:53;3.13;;;2.83;;
50683;SDS011;36654;45.042;38.994;2023-04-25T02:48:18;3.55;;;2.58;;
50683;SDS011;36654;45.042;38.994;2023-04-25T02:50:44;4.20;;;2.60;;
50683;SDS011;36654;45.042;38.994;2023-04-25T02:53:10;4.10;;;2.60;;
50683;SDS011;36654;45.042;38.994;2023-04-25T02:55:36;2.35;;;2.13;;
50683;SDS011;36654;45.042;38.994;2023-04-25T02:58:01;3.25;;;2.40;;
50683;SDS011;36654;45.042;38.994;2023-04-25T03:00:27;2.80;;;2.30;;
50683;SDS011;36654;45.042;38.994;2023-04-25T03:02:53;5.25;;;2.47;;
50683;SDS011;36654;45.042;38.994;2023-04-25T03:05:18;4.07;;;2.42;;
50683;SDS011;36654;45.042;38.994;2023-04-25T03:07:44;3.60;;;2.20;;
50683;SDS011;36654;45.042;38.994;2023-04-25T03:10:10;4.07;;;1.92;;
50683;SDS011;36654;45.042;38.994;2023-04-25T03:12:36;2.95;;;2.38;;
50683;SDS011;36654;45.042;38.994;2023-04-25T03:15:02;3.28;;;2.13;;
50683;SDS011;36654;45.042;38.994;2023-04-25T03:17:28;3.78;;;2.30;;
50683;SDS011;36654;45.042;38.994;2023-04-25T03:19:54;3.42;;;2.40;;
50683;SDS011;36654;45.042;38.994;2023-04-25T03:22:20;2.45;;;2.22;;
50683;SDS011;36654;45.042;38.994;2023-04-25T03:24:46;4.38;;;2.22;;
50683;SDS011;36654;45.042;38.994;2023-04-25T03:27:12;3.33;;;2.20;;
50683;SDS011;36654;45.042;38.994;2023-04-25T03:29:38;4.28;;;2.20;;
50683;SDS011;36654;45.042;38.994;2023-04-25T03:32:04;2.88;;;2.40;;
50683;SDS011;36654;45.042;38.994;2023-04-25T03:34:29;2.53;;;2.30;;
50683;SDS011;36654;45.042;38.994;2023-04-25T03:36:55;4.75;;;2.75;;
50683;SDS011;36654;45.042;38.994;2023-04-25T03:39:21;2.58;;;2.20;;
50683;SDS011;36654;45.042;38.994;2023-04-25T03:41:46;4.13;;;2.40;;
50683;SDS011;36654;45.042;38.994;2023-04-25T03:44:12;2.50;;;2.15;;
50683;SDS011;36654;45.042;38.994;2023-04-25T03:46:38;2.85;;;2.13;;
50683;SDS011;36654;45.042;38.994;2023-04-25T03:49:03;2.38;;;2.17;;
50683;SDS011;36654;45.042;38.994;2023-04-25T03:51:29;4.10;;;2.78;;
50683;SDS011;36654;45.042;38.994;2023-04-25T03:53:56;3.63;;;2.30;;
50683;SDS011;36654;45.042;38.994;2023-04-25T03:56:22;2.50;;;2.30;;
50683;SDS011;36654;45.042;38.994;2023-04-25T03:58:47;3.53;;;2.97;;
50683;SDS011;36654;45.042;38.994;2023-04-25T04:01:13;3.38;;;2.53;;
50683;SDS011;36654;45.042;38.994;2023-04-25T04:03:39;2.75;;;2.53;;
50683;SDS011;36654;45.042;38.994;2023-04-25T04:06:05;2.67;;;2.40;;
50683;SDS011;36654;45.042;38.994;2023-04-25T04:08:31;2.60;;;2.40;;
50683;SDS011;36654;45.042;38.994;2023-04-25T04:10:57;5.43;;;2.40;;
50683;SDS011;36654;45.042;38.994;2023-04-25T04:13:25;3.85;;;2.83;;
50683;SDS011;36654;45.042;38.994;2023-04-25T04:15:51;2.60;;;2.40;;
50683;SDS011;36654;45.042;38.994;2023-04-25T04:18:17;3.92;;;2.42;;
50683;SDS011;36654;45.042;38.994;2023-04-25T04:20:43;4.20;;;2.38;;
50683;SDS011;36654;45.042;38.994;2023-04-25T04:23:08;3.85;;;2.17;;
50683;SDS011;36654;45.042;38.994;2023-04-25T04:25:34;4.30;;;2.47;;
50683;SDS011;36654;45.042;38.994;2023-04-25T04:28:00;4.00;;;2.97;;
50683;SDS011;36654;45.042;38.994;2023-04-25T04:30:26;2.78;;;2.58;;
50683;SDS011;36654;45.042;38.994;2023-04-25T04:32:54;2.40;;;2.20;;
50683;SDS011;36654;45.042;38.994;2023-04-25T04:35:21;4.40;;;2.42;;
50683;SDS011;36654;45.042;38.994;2023-04-25T04:37:47;4.05;;;2.47;;
50683;SDS011;36654;45.042;38.994;2023-04-25T04:40:14;2.30;;;2.10;;
50683;SDS011;36654;45.042;38.994;2023-04-25T04:42:43;3.28;;;2.50;;
50683;SDS011;36654;45.042;38.994;2023-04-25T04:45:10;2.45;;;2.25;;
50683;SDS011;36654;45.042;38.994;2023-04-25T04:47:37;3.17;;;2.42;;
50683;SDS011;36654;45.042;38.994;2023-04-25T04:50:05;4.82;;;2.33;;
50683;SDS011;36654;45.042;38.994;2023-04-25T04:52:35;4.15;;;2.20;;
50683;SDS011;36654;45.042;38.994;2023-04-25T04:55:02;3.63;;;2.55;;
50683;SDS011;36654;45.042;38.994;2023-04-25T04:57:28;2.42;;;2.20;;
50683;SDS011;36654;45.042;38.994;2023-04-25T04:59:54;3.30;;;2.30;;
50683;SDS011;36654;45.042;38.994;2023-04-25T05:02:20;2.92;;;2.60;;
50683;SDS011;36654;45.042;38.994;2023-04-25T05:04:46;2.65;;;2.45;;
50683;SDS011;36654;45.042;38.994;2023-04-25T05:07:12;3.28;;;2.40;;
50683;SDS011;36654;45.042;38.994;2023-04-25T05:09:37;4.55;;;2.45;;
50683;SDS011;36654;45.042;38.994;2023-04-25T05:12:03;2.97;;;2.47;;
50683;SDS011;36654;45.042;38.994;2023-04-25T05:14:29;2.80;;;2.60;;
50683;SDS011;36654;45.042;38.994;2023-04-25T05:16:55;4.57;;;2.80;;
50683;SDS011;36654;45.042;38.994;2023-04-25T05:19:20;5.63;;;3.08;;
50683;SDS011;36654;45.042;38.994;2023-04-25T05:21:46;5.10;;;2.78;;
50683;SDS011;36654;45.042;38.994;2023-04-25T05:24:11;2.80;;;2.50;;
50683;SDS011;36654;45.042;38.994;2023-04-25T05:26:37;5.47;;;3.00;;
50683;SDS011;36654;45.042;38.994;2023-04-25T05:29:03;4.47;;;2.63;;
50683;SDS011;36654;45.042;38.994;2023-04-25T05:31:29;2.83;;;2.53;;
50683;SDS011;36654;45.042;38.994;2023-04-25T05:33:54;4.03;;;2.53;;
50683;SDS011;36654;45.042;38.994;2023-04-25T05:36:20;3.72;;;2.55;;
50683;SDS011;36654;45.042;38.994;2023-04-25T05:38:46;5.93;;;2.78;;
50683;SDS011;36654;45.042;38.994;2023-04-25T05:41:12;4.22;;;2.38;;
50683;SDS011;36654;45.042;38.994;2023-04-25T05:43:37;2.55;;;2.35;;
50683;SDS011;36654;45.042;38.994;2023-04-25T05:46:03;4.13;;;2.25;;
50683;SDS011;36654;45.042;38.994;2023-04-25T05:48:29;3.60;;;2.50;;
50683;SDS011;36654;45.042;38.994;2023-04-25T05:50:55;4.90;;;2.60;;
50683;SDS011;36654;45.042;38.994;2023-04-25T05:53:20;6.45;;;4.07;;
50683;SDS011;36654;45.042;38.994;2023-04-25T05:55:47;5.07;;;2.58;;
50683;SDS011;36654;45.042;38.994;2023-04-25T05:58:12;2.65;;;2.35;;
50683;SDS011;36654;45.042;38.994;2023-04-25T06:00:38;5.10;;;2.97;;
50683;SDS011;36654;45.042;38.994;2023-04-25T06:03:04;4.30;;;2.75;;
50683;SDS011;36654;45.042;38.994;2023-04-25T06:05:29;5.57;;;2.50;;
50683;SDS011;36654;45.042;38.994;2023-04-25T06:07:55;5.30;;;2.67;;
50683;SDS011;36654;45.042;38.994;2023-04-25T06:10:21;3.15;;;2.67;;
50683;SDS011;36654;45.042;38.994;2023-04-25T06:12:47;6.22;;;2.95;;
50683;SDS011;36654;45.042;38.994;2023-04-25T06:15:13;5.50;;;2.92;;
50683;SDS011;36654;45.042;38.994;2023-04-25T06:17:39;3.72;;;2.53;;
50683;SDS011;36654;45.042;38.994;2023-04-25T06:20:05;3.10;;;2.63;;
50683;SDS011;36654;45.042;38.994;2023-04-25T06:22:31;3.70;;;3.03;;
50683;SDS011;36654;45.042;38.994;2023-04-25T06:24:57;6.68;;;3.60;;
50683;SDS011;36654;45.042;38.994;2023-04-25T06:27:24;6.75;;;3.33;;
50683;SDS011;36654;45.042;38.994;2023-04-25T06:29:50;4.43;;;2.63;;
50683;SDS011;36654;45.042;38.994;2023-04-25T06:32:15;8.10;;;3.38;;
50683;SDS011;36654;45.042;38.994;2023-04-25T06:34:43;4.10;;;2.55;;
50683;SDS011;36654;45.042;38.994;2023-04-25T06:37:08;4.03;;;2.92;;
50683;SDS011;36654;45.042;38.994;2023-04-25T06:39:34;5.28;;;2.30;;
50683;SDS011;36654;45.042;38.994;2023-04-25T06:42:00;6.80;;;3.10;;
50683;SDS011;36654;45.042;38.994;2023-04-25T06:44:26;4.43;;;2.72;;
50683;SDS011;36654;45.042;38.994;2023-04-25T06:46:54;8.30;;;2.85;;
50683;SDS011;36654;45.042;38.994;2023-04-25T06:49:19;5.43;;;3.10;;
50683;SDS011;36654;45.042;38.994;2023-04-25T06:51:45;3.25;;;2.90;;
50683;SDS011;36654;45.042;38.994;2023-04-25T06:54:11;4.47;;;2.72;;
50683;SDS011;36654;45.042;38.994;2023-04-25T06:56:36;5.00;;;3.08;;
50683;SDS011;36654;45.042;38.994;2023-04-25T06:59:02;5.95;;;3.38;;
50683;SDS011;36654;45.042;38.994;2023-04-25T07:01:28;4.45;;;3.30;;
50683;SDS011;36654;45.042;38.994;2023-04-25T07:03:53;4.82;;;3.17;;
50683;SDS011;36654;45.042;38.994;2023-04-25T07:06:19;5.93;;;3.50;;
50683;SDS011;36654;45.042;38.994;2023-04-25T07:08:44;5.65;;;3.10;;
50683;SDS011;36654;45.042;38.994;2023-04-25T07:11:10;5.47;;;3.25;;
50683;SDS011;36654;45.042;38.994;2023-04-25T07:13:36;6.13;;;3.13;;
50683;SDS011;36654;45.042;38.994;2023-04-25T07:16:01;5.55;;;3.30;;
50683;SDS011;36654;45.042;38.994;2023-04-25T07:18:28;5.55;;;3.25;;
50683;SDS011;36654;45.042;38.994;2023-04-25T07:20:53;4.35;;;3.08;;
50683;SDS011;36654;45.042;38.994;2023-04-25T07:23:19;7.55;;;4.18;;
50683;SDS011;36654;45.042;38.994;2023-04-25T07:25:45;6.38;;;3.53;;
50683;SDS011;36654;45.042;38.994;2023-04-25T07:28:10;9.13;;;3.50;;
50683;SDS011;36654;45.042;38.994;2023-04-25T07:30:36;5.55;;;3.38;;
50683;SDS011;36654;45.042;38.994;2023-04-25T07:33:02;5.38;;;3.10;;
50683;SDS011;36654;45.042;38.994;2023-04-25T07:35:27;7.07;;;3.42;;
50683;SDS011;36654;45.042;38.994;2023-04-25T07:37:53;6.20;;;3.28;;
50683;SDS011;36654;45.042;38.994;2023-04-25T07:40:18;7.10;;;3.95;;
50683;SDS011;36654;45.042;38.994;2023-04-25T07:42:44;5.75;;;2.92;;
50683;SDS011;36654;45.042;38.994;2023-04-25T07:45:10;8.02;;;3.28;;
50683;SDS011;36654;45.042;38.994;2023-04-25T07:47:35;4.57;;;2.50;;
50683;SDS011;36654;45.042;38.994;2023-04-25T07:50:02;6.93;;;3.10;;
50683;SDS011;36654;45.042;38.994;2023-04-25T07:52:28;6.50;;;2.95;;
50683;SDS011;36654;45.042;38.994;2023-04-25T07:54:54;5.60;;;3.58;;
50683;SDS011;36654;45.042;38.994;2023-04-25T07:57:19;9.00;;;3.78;;
50683;SDS011;36654;45.042;38.994;2023-04-25T07:59:45;9.02;;;3.60;;
50683;SDS011;36654;45.042;38.994;2023-04-25T08:02:11;3.88;;;3.20;;
50683;SDS011;36654;45.042;38.994;2023-04-25T08:04:36;4.63;;;3.03;;
50683;SDS011;36654;45.042;38.994;2023-04-25T08:07:02;6.60;;;3.70;;
50683;SDS011;36654;45.042;38.994;2023-04-25T08:09:28;8.10;;;3.13;;
50683;SDS011;36654;45.042;38.994;2023-04-25T08:11:54;7.95;;;3.65;;
50683;SDS011;36654;45.042;38.994;2023-04-25T08:14:20;8.98;;;3.95;;
50683;SDS011;36654;45.042;38.994;2023-04-25T08:16:45;8.73;;;4.13;;
50683;SDS011;36654;45.042;38.994;2023-04-25T08:19:11;8.35;;;3.90;;
50683;SDS011;36654;45.042;38.994;2023-04-25T08:21:37;6.78;;;3.05;;
50683;SDS011;36654;45.042;38.994;2023-04-25T08:24:03;3.47;;;2.63;;
50683;SDS011;36654;45.042;38.994;2023-04-25T08:26:29;6.78;;;3.28;;
50683;SDS011;36654;45.042;38.994;2023-04-25T08:28:54;5.85;;;3.28;;
50683;SDS011;36654;45.042;38.994;2023-04-25T08:31:20;8.07;;;3.65;;
50683;SDS011;36654;45.042;38.994;2023-04-25T08:33:46;4.68;;;3.75;;
50683;SDS011;36654;45.042;38.994;2023-04-25T08:36:11;7.93;;;4.10;;
50683;SDS011;36654;45.042;38.994;2023-04-25T08:38:37;4.55;;;2.90;;
50683;SDS011;36654;45.042;38.994;2023-04-25T08:41:03;8.00;;;3.63;;
50683;SDS011;36654;45.042;38.994;2023-04-25T08:43:30;4.82;;;3.38;;
50683;SDS011;36654;45.042;38.994;2023-04-25T08:45:59;4.80;;;2.70;;
50683;SDS011;36654;45.042;38.994;2023-04-25T08:48:26;6.72;;;3.00;;
50683;SDS011;36654;45.042;38.994;2023-04-25T08:50:54;9.90;;;3.00;;
50683;SDS011;36654;45.042;38.994;2023-04-25T08:53:28;6.72;;;3.00;;
50683;SDS011;36654;45.042;38.994;2023-04-25T08:55:57;3.20;;;2.90;;
50683;SDS011;36654;45.042;38.994;2023-04-25T08:58:23;2.92;;;2.72;;
50683;SDS011;36654;45.042;38.994;2023-04-25T09:00:50;7.38;;;3.05;;
50683;SDS011;36654;45.042;38.994;2023-04-25T09:03:16;4.50;;;2.83;;
50683;SDS011;36654;45.042;38.994;2023-04-25T09:05:43;6.82;;;2.92;;
50683;SDS011;36654;45.042;38.994;2023-04-25T09:08:09;4.90;;;3.10;;
50683;SDS011;36654;45.042;38.994;2023-04-25T09:10:35;5.07;;;2.53;;
50683;SDS011;36654;45.042;38.994;2023-04-25T09:13:02;11.10;;;3.00;;
50683;SDS011;36654;45.042;38.994;2023-04-25T09:15:54;5.60;;;3.38;;
50683;SDS011;36654;45.042;38.994;2023-04-25T09:21:06;3.10;;;2.70;;
50683;SDS011;36654;45.042;38.994;2023-04-25T09:23:41;5.85;;;2.70;;
50683;SDS011;36654;45.042;38.994;2023-04-25T09:26:15;6.95;;;3.13;;
50683;SDS011;36654;45.042;38.994;2023-04-25T09:28:42;8.10;;;2.60;;
50683;SDS011;36654;45.042;38.994;2023-04-25T09:31:09;4.65;;;3.03;;
50683;SDS011;36654;45.042;38.994;2023-04-25T09:33:37;6.88;;;2.97;;
50683;SDS011;36654;45.042;38.994;2023-04-25T09:36:06;7.28;;;2.97;;
50683;SDS011;36654;45.042;38.994;2023-04-25T09:38:40;4.63;;;2.50;;
50683;SDS011;36654;45.042;38.994;2023-04-25T09:41:08;4.20;;;2.55;;
50683;SDS011;36654;45.042;38.994;2023-04-25T09:43:35;4.18;;;2.65;;
50683;SDS011;36654;45.042;38.994;2023-04-25T09:46:02;7.65;;;2.80;;
50683;SDS011;36654;45.042;38.994;2023-04-25T09:48:32;3.10;;;2.35;;
50683;SDS011;36654;45.042;38.994;2023-04-25T09:53:37;3.92;;;2.22;;
50683;SDS011;36654;45.042;38.994;2023-04-25T09:56:05;5.68;;;3.20;;
50683;SDS011;36654;45.042;38.994;2023-04-25T09:58:33;5.65;;;3.03;;
50683;SDS011;36654;45.042;38.994;2023-04-25T10:01:01;5.88;;;2.70;;
50683;SDS011;36654;45.042;38.994;2023-04-25T10:03:32;5.25;;;2.80;;
50683;SDS011;36654;45.042;38.994;2023-04-25T10:06:03;5.72;;;2.80;;
50683;SDS011;36654;45.042;38.994;2023-04-25T10:08:33;7.32;;;2.55;;
50683;SDS011;36654;45.042;38.994;2023-04-25T10:11:06;3.63;;;2.38;;
50683;SDS011;36654;45.042;38.994;2023-04-25T10:13:33;4.57;;;2.53;;
50683;SDS011;36654;45.042;38.994;2023-04-25T10:16:00;4.95;;;2.50;;
50683;SDS011;36654;45.042;38.994;2023-04-25T10:18:28;2.53;;;2.30;;
50683;SDS011;36654;45.042;38.994;2023-04-25T10:20:54;5.03;;;2.40;;
50683;SDS011;36654;45.042;38.994;2023-04-25T10:23:22;2.40;;;1.98;;
50683;SDS011;36654;45.042;38.994;2023-04-25T10:25:49;6.30;;;3.15;;
50683;SDS011;36654;45.042;38.994;2023-04-25T10:28:16;7.78;;;2.75;;
50683;SDS011;36654;45.042;38.994;2023-04-25T10:31:01;6.55;;;2.50;;
50683;SDS011;36654;45.042;38.994;2023-04-25T10:33:32;3.65;;;2.53;;
50683;SDS011;36654;45.042;38.994;2023-04-25T10:36:09;5.38;;;2.55;;
50683;SDS011;36654;45.042;38.994;2023-04-25T10:38:36;6.35;;;2.60;;
50683;SDS011;36654;45.042;38.994;2023-04-25T10:41:07;5.40;;;2.67;;
50683;SDS011;36654;45.042;38.994;2023-04-25T10:46:03;5.15;;;2.53;;
50683;SDS011;36654;45.042;38.994;2023-04-25T10:48:59;4.07;;;2.35;;
50683;SDS011;36654;45.042;38.994;2023-04-25T10:51:29;2.75;;;2.20;;
50683;SDS011;36654;45.042;38.994;2023-04-25T10:56:28;7.45;;;2.40;;
50683;SDS011;36654;45.042;38.994;2023-04-25T10:59:12;5.68;;;2.70;;
50683;SDS011;36654;45.042;38.994;2023-04-25T11:01:42;3.88;;;2.15;;
50683;SDS011;36654;45.042;38.994;2023-04-25T11:04:22;4.88;;;2.88;;
50683;SDS011;36654;45.042;38.994;2023-04-25T11:09:39;5.75;;;2.90;;
50683;SDS011;36654;45.042;38.994;2023-04-25T11:12:07;6.82;;;2.72;;
50683;SDS011;36654;45.042;38.994;2023-04-25T11:14:33;4.80;;;2.58;;
50683;SDS011;36654;45.042;38.994;2023-04-25T11:16:59;4.53;;;2.40;;
50683;SDS011;36654;45.042;38.994;2023-04-25T11:19:26;2.65;;;2.45;;
50683;SDS011;36654;45.042;38.994;2023-04-25T11:21:56;4.82;;;2.88;;
50683;SDS011;36654;45.042;38.994;2023-04-25T11:24:27;6.30;;;2.65;;
50683;SDS011;36654;45.042;38.994;2023-04-25T11:26:53;4.95;;;2.65;;
50683;SDS011;36654;45.042;38.994;2023-04-25T11:29:21;4.43;;;2.65;;
50683;SDS011;36654;45.042;38.994;2023-04-25T11:31:48;5.20;;;2.63;;
50683;SDS011;36654;45.042;38.994;2023-04-25T11:34:20;4.65;;;2.50;;
50683;SDS011;36654;45.042;38.994;2023-04-25T11:36:46;2.55;;;2.30;;
50683;SDS011;36654;45.042;38.994;2023-04-25T11:39:11;3.58;;;2.08;;
50683;SDS011;36654;45.042;38.994;2023-04-25T11:41:37;7.20;;;2.10;;
50683;SDS011;36654;45.042;38.994;2023-04-25T11:44:03;6.15;;;2.88;;
50683;SDS011;36654;45.042;38.994;2023-04-25T11:46:30;3.50;;;2.65;;
50683;SDS011;36654;45.042;38.994;2023-04-25T11:48:58;6.88;;;2.88;;
50683;SDS011;36654;45.042;38.994;2023-04-25T11:51:24;4.40;;;2.90;;
50683;SDS011;36654;45.042;38.994;2023-04-25T11:53:51;5.00;;;2.33;;
50683;SDS011;36654;45.042;38.994;2023-04-25T11:56:17;4.32;;;2.30;;
50683;SDS011;36654;45.042;38.994;2023-04-25T11:58:58;6.13;;;2.30;;
50683;SDS011;36654;45.042;38.994;2023-04-25T12:01:32;3.38;;;2.10;;
50683;SDS011;36654;45.042;38.994;2023-04-25T12:04:09;7.03;;;2.50;;
50683;SDS011;36654;45.042;38.994;2023-04-25T12:06:38;5.95;;;2.33;;
50683;SDS011;36654;45.042;38.994;2023-04-25T12:09:07;9.02;;;2.92;;
50683;SDS011;36654;45.042;38.994;2023-04-25T12:11:40;5.03;;;3.15;;
50683;SDS011;36654;45.042;38.994;2023-04-25T12:14:11;4.95;;;3.10;;
50683;SDS011;36654;45.042;38.994;2023-04-25T12:16:43;6.65;;;2.78;;
50683;SDS011;36654;45.042;38.994;2023-04-25T12:19:13;6.82;;;2.90;;
50683;SDS011;36654;45.042;38.994;2023-04-25T12:21:39;5.18;;;2.30;;
50683;SDS011;36654;45.042;38.994;2023-04-25T12:24:15;7.63;;;2.60;;
50683;SDS011;36654;45.042;38.994;2023-04-25T12:26:52;6.00;;;2.92;;
50683;SDS011;36654;45.042;38.994;2023-04-25T12:29:24;5.15;;;2.63;;
50683;SDS011;36654;45.042;38.994;2023-04-25T12:31:51;4.95;;;2.70;;
50683;SDS011;36654;45.042;38.994;2023-04-25T12:34:18;5.55;;;2.60;;
50683;SDS011;36654;45.042;38.994;2023-04-25T12:36:45;8.57;;;2.80;;
50683;SDS011;36654;45.042;38.994;2023-04-25T12:39:14;5.35;;;2.33;;
50683;SDS011;36654;45.042;38.994;2023-04-25T12:41:44;5.18;;;2.55;;
50683;SDS011;36654;45.042;38.994;2023-04-25T12:44:11;5.75;;;2.20;;
50683;SDS011;36654;45.042;38.994;2023-04-25T12:46:37;4.43;;;2.45;;
50683;SDS011;36654;45.042;38.994;2023-04-25T12:49:03;3.03;;;2.25;;
50683;SDS011;36654;45.042;38.994;2023-04-25T12:51:29;4.88;;;2.28;;
50683;SDS011;36654;45.042;38.994;2023-04-25T12:53:57;3.03;;;2.42;;
50683;SDS011;36654;45.042;38.994;2023-04-25T12:56:24;5.20;;;2.85;;
50683;SDS011;36654;45.042;38.994;2023-04-25T12:58:50;5.60;;;2.88;;
50683;SDS011;36654;45.042;38.994;2023-04-25T13:01:16;10.00;;;3.60;;
50683;SDS011;36654;45.042;38.994;2023-04-25T13:03:41;5.07;;;2.72;;
50683;SDS011;36654;45.042;38.994;2023-04-25T13:06:07;4.55;;;2.72;;
50683;SDS011;36654;45.042;38.994;2023-04-25T13:08:33;3.92;;;2.60;;
50683;SDS011;36654;45.042;38.994;2023-04-25T13:11:00;8.95;;;2.83;;
50683;SDS011;36654;45.042;38.994;2023-04-25T13:13:25;5.45;;;2.58;;
50683;SDS011;36654;45.042;38.994;2023-04-25T13:15:52;4.47;;;2.53;;
50683;SDS011;36654;45.042;38.994;2023-04-25T13:18:18;7.07;;;2.50;;
50683;SDS011;36654;45.042;38.994;2023-04-25T13:20:44;9.48;;;2.70;;
50683;SDS011;36654;45.042;38.994;2023-04-25T13:23:11;7.68;;;3.20;;
50683;SDS011;36654;45.042;38.994;2023-04-25T13:25:37;6.60;;;3.55;;
50683;SDS011;36654;45.042;38.994;2023-04-25T13:28:02;11.95;;;3.00;;
50683;SDS011;36654;45.042;38.994;2023-04-25T13:30:28;6.15;;;2.33;;
50683;SDS011;36654;45.042;38.994;2023-04-25T13:32:54;2.38;;;2.05;;
50683;SDS011;36654;45.042;38.994;2023-04-25T13:35:21;7.00;;;2.90;;
50683;SDS011;36654;45.042;38.994;2023-04-25T13:37:47;5.60;;;2.72;;
50683;SDS011;36654;45.042;38.994;2023-04-25T13:40:13;4.00;;;2.58;;
50683;SDS011;36654;45.042;38.994;2023-04-25T13:42:39;6.45;;;2.60;;
50683;SDS011;36654;45.042;38.994;2023-04-25T13:45:06;3.75;;;2.28;;
50683;SDS011;36654;45.042;38.994;2023-04-25T13:47:32;4.43;;;2.42;;
50683;SDS011;36654;45.042;38.994;2023-04-25T13:49:58;5.93;;;2.55;;
50683;SDS011;36654;45.042;38.994;2023-04-25T13:52:24;7.95;;;2.95;;
50683;SDS011;36654;45.042;38.994;2023-04-25T13:54:50;4.90;;;2.42;;
50683;SDS011;36654;45.042;38.994;2023-04-25T13:57:16;2.85;;;2.42;;
50683;SDS011;36654;45.042;38.994;2023-04-25T13:59:42;6.13;;;2.33;;
50683;SDS011;36654;45.042;38.994;2023-04-25T14:02:08;4.63;;;2.60;;
50683;SDS011;36654;45.042;38.994;2023-04-25T14:04:34;2.95;;;2.63;;
50683;SDS011;36654;45.042;38.994;2023-04-25T14:07:00;10.82;;;2.90;;
50683;SDS011;36654;45.042;38.994;2023-04-25T14:09:27;4.30;;;2.55;;
50683;SDS011;36654;45.042;38.994;2023-04-25T14:11:53;5.53;;;2.92;;
50683;SDS011;36654;45.042;38.994;2023-04-25T14:14:19;2.95;;;2.67;;
50683;SDS011;36654;45.042;38.994;2023-04-25T14:16:48;4.80;;;2.65;;
50683;SDS011;36654;45.042;38.994;2023-04-25T14:19:15;5.85;;;2.53;;
50683;SDS011;36654;45.042;38.994;2023-04-25T14:21:41;4.50;;;2.58;;
50683;SDS011;36654;45.042;38.994;2023-04-25T14:24:10;5.97;;;2.60;;
50683;SDS011;36654;45.042;38.994;2023-04-25T14:26:36;5.03;;;2.78;;
50683;SDS011;36654;45.042;38.994;2023-04-25T14:29:03;8.13;;;2.67;;
50683;SDS011;36654;45.042;38.994;2023-04-25T14:31:30;4.20;;;2.70;;
50683;SDS011;36654;45.042;38.994;2023-04-25T14:33:56;2.95;;;2.60;;
50683;SDS011;36654;45.042;38.994;2023-04-25T14:36:22;2.47;;;2.28;;
50683;SDS011;36654;45.042;38.994;2023-04-25T14:38:48;5.18;;;2.70;;
50683;SDS011;36654;45.042;38.994;2023-04-25T14:41:14;4.13;;;2.78;;
50683;SDS011;36654;45.042;38.994;2023-04-25T14:43:40;3.95;;;2.67;;
50683;SDS011;36654;45.042;38.994;2023-04-25T14:46:06;6.93;;;2.60;;
50683;SDS011;36654;45.042;38.994;2023-04-25T14:48:32;7.72;;;2.70;;